sensor_id;sensor_type;location;lat;lon;timestamp;temperature;humidity
21244;DHT22;10780;50.942;4.028;2023-04-03T00:01:32;3.60;99.90
21244;DHT22;10780;50.942;4.028;2023-04-03T00:03:58;3.70;99.90
21244;DHT22;10780;50.942;4.028;2023-04-03T00:06:24;3.70;99.90
21244;DHT22;10780;50.942;4.028;2023-04-03T00:08:50;3.60;99.90
21244;DHT22;10780;50.942;4.028;2023-04-03T00:11:17;3.60;99.90
21244;DHT22;10780;50.942;4.028;2023-04-03T00:13:42;3.50;99.90
21244;DHT22;10780;50.942;4.028;2023-04-03T00:16:09;3.50;99.90
21244;DHT22;10780;50.942;4.028;2023-04-03T00:18:36;3.60;99.90
21244;DHT22;10780;50.942;4.028;2023-04-03T00:21:03;3.80;99.90
21244;DHT22;10780;50.942;4.028;2023-04-03T00:23:28;3.70;99.90
21244;DHT22;10780;50.942;4.028;2023-04-03T00:25:54;3.60;99.90
21244;DHT22;10780;50.942;4.028;2023-04-03T00:28:20;3.60;99.90
21244;DHT22;10780;50.942;4.028;2023-04-03T00:30:48;3.60;99.90
21244;DHT22;10780;50.942;4.028;2023-04-03T00:33:14;3.50;99.90
21244;DHT22;10780;50.942;4.028;2023-04-03T00:35:40;3.70;99.90
21244;DHT22;10780;50.942;4.028;2023-04-03T00:38:06;3.70;99.90
21244;DHT22;10780;50.942;4.028;2023-04-03T00:40:37;3.50;99.90
21244;DHT22;10780;50.942;4.028;2023-04-03T00:43:12;3.40;99.90
21244;DHT22;10780;50.942;4.028;2023-04-03T00:45:40;3.30;99.90
21244;DHT22;10780;50.942;4.028;2023-04-03T00:48:09;3.20;99.90
21244;DHT22;10780;50.942;4.028;2023-04-03T00:50:39;3.10;99.90
21244;DHT22;10780;50.942;4.028;2023-04-03T00:53:11;3.00;99.90
21244;DHT22;10780;50.942;4.028;2023-04-03T00:55:38;2.90;99.90
21244;DHT22;10780;50.942;4.028;2023-04-03T00:58:05;3.00;99.90
21244;DHT22;10780;50.942;4.028;2023-04-03T01:00:32;3.20;99.90
21244;DHT22;10780;50.942;4.028;2023-04-03T01:02:58;3.30;99.90
21244;DHT22;10780;50.942;4.028;2023-04-03T01:05:24;3.40;99.90
21244;DHT22;10780;50.942;4.028;2023-04-03T01:07:51;3.30;99.90
21244;DHT22;10780;50.942;4.028;2023-04-03T01:10:18;3.10;99.90
21244;DHT22;10780;50.942;4.028;2023-04-03T01:12:47;3.00;99.90
21244;DHT22;10780;50.942;4.028;2023-04-03T01:15:18;2.90;99.90
21244;DHT22;10780;50.942;4.028;2023-04-03T01:17:49;2.90;99.90
21244;DHT22;10780;50.942;4.028;2023-04-03T01:23:27;3.00;99.90
21244;DHT22;10780;50.942;4.028;2023-04-03T01:25:56;3.00;99.90
21244;DHT22;10780;50.942;4.028;2023-04-03T01:28:25;3.10;99.90
21244;DHT22;10780;50.942;4.028;2023-04-03T01:31:21;3.10;99.90
21244;DHT22;10780;50.942;4.028;2023-04-03T01:33:48;3.10;99.90
21244;DHT22;10780;50.942;4.028;2023-04-03T01:36:18;3.30;99.90
21244;DHT22;10780;50.942;4.028;2023-04-03T01:38:44;3.50;99.90
21244;DHT22;10780;50.942;4.028;2023-04-03T01:41:09;3.50;99.90
21244;DHT22;10780;50.942;4.028;2023-04-03T01:43:35;3.40;99.90
21244;DHT22;10780;50.942;4.028;2023-04-03T01:46:00;3.30;99.90
21244;DHT22;10780;50.942;4.028;2023-04-03T01:48:26;3.20;99.90
21244;DHT22;10780;50.942;4.028;2023-04-03T01:50:52;3.30;99.90
21244;DHT22;10780;50.942;4.028;2023-04-03T01:53:17;3.20;99.90
21244;DHT22;10780;50.942;4.028;2023-04-03T01:55:43;3.30;99.90
21244;DHT22;10780;50.942;4.028;2023-04-03T01:58:08;3.40;99.90
21244;DHT22;10780;50.942;4.028;2023-04-03T02:00:34;3.40;99.90
21244;DHT22;10780;50.942;4.028;2023-04-03T02:03:01;3.40;99.90
21244;DHT22;10780;50.942;4.028;2023-04-03T02:05:27;3.40;99.90
21244;DHT22;10780;50.942;4.028;2023-04-03T02:07:53;3.20;99.90
21244;DHT22;10780;50.942;4.028;2023-04-03T02:10:19;3.30;99.90
21244;DHT22;10780;50.942;4.028;2023-04-03T02:12:44;3.20;99.90
21244;DHT22;10780;50.942;4.028;2023-04-03T02:15:10;3.20;99.90
21244;DHT22;10780;50.942;4.028;2023-04-03T02:17:36;3.20;99.90
21244;DHT22;10780;50.942;4.028;2023-04-03T02:20:03;3.10;99.90
21244;DHT22;10780;50.942;4.028;2023-04-03T02:22:29;3.20;99.90
21244;DHT22;10780;50.942;4.028;2023-04-03T02:24:54;3.20;99.90
21244;DHT22;10780;50.942;4.028;2023-04-03T02:27:20;3.20;99.90
21244;DHT22;10780;50.942;4.028;2023-04-03T02:29:46;3.10;99.90
21244;DHT22;10780;50.942;4.028;2023-04-03T02:32:11;3.00;99.90
21244;DHT22;10780;50.942;4.028;2023-04-03T02:34:37;2.90;99.90
21244;DHT22;10780;50.942;4.028;2023-04-03T02:37:02;3.00;99.90
21244;DHT22;10780;50.942;4.028;2023-04-03T02:39:28;3.00;99.90
21244;DHT22;10780;50.942;4.028;2023-04-03T02:41:54;3.20;99.90
21244;DHT22;10780;50.942;4.028;2023-04-03T02:44:19;2.90;99.90
21244;DHT22;10780;50.942;4.028;2023-04-03T02:46:45;2.90;99.90
21244;DHT22;10780;50.942;4.028;2023-04-03T02:49:11;2.90;99.90
21244;DHT22;10780;50.942;4.028;2023-04-03T02:51:36;2.90;99.90
21244;DHT22;10780;50.942;4.028;2023-04-03T02:54:02;2.90;99.90
21244;DHT22;10780;50.942;4.028;2023-04-03T02:56:27;2.90;99.90
21244;DHT22;10780;50.942;4.028;2023-04-03T02:58:53;3.00;99.90
21244;DHT22;10780;50.942;4.028;2023-04-03T03:01:19;3.20;99.90
21244;DHT22;10780;50.942;4.028;2023-04-03T03:03:45;3.20;99.90
21244;DHT22;10780;50.942;4.028;2023-04-03T03:06:13;3.40;99.90
21244;DHT22;10780;50.942;4.028;2023-04-03T03:08:39;3.40;99.90
21244;DHT22;10780;50.942;4.028;2023-04-03T03:11:05;3.40;99.90
21244;DHT22;10780;50.942;4.028;2023-04-03T03:13:31;3.30;99.90
21244;DHT22;10780;50.942;4.028;2023-04-03T03:15:57;3.30;99.90
21244;DHT22;10780;50.942;4.028;2023-04-03T03:18:23;3.40;99.90
21244;DHT22;10780;50.942;4.028;2023-04-03T03:20:52;3.30;99.90
21244;DHT22;10780;50.942;4.028;2023-04-03T03:23:18;3.40;99.90
21244;DHT22;10780;50.942;4.028;2023-04-03T03:25:44;3.40;99.90
21244;DHT22;10780;50.942;4.028;2023-04-03T03:28:10;3.30;99.90
21244;DHT22;10780;50.942;4.028;2023-04-03T03:30:36;3.20;99.90
21244;DHT22;10780;50.942;4.028;2023-04-03T03:33:02;3.10;99.90
21244;DHT22;10780;50.942;4.028;2023-04-03T03:35:28;3.00;99.90
21244;DHT22;10780;50.942;4.028;2023-04-03T03:37:53;3.10;99.90
21244;DHT22;10780;50.942;4.028;2023-04-03T03:40:19;3.00;99.90
21244;DHT22;10780;50.942;4.028;2023-04-03T03:42:45;3.10;99.90
21244;DHT22;10780;50.942;4.028;2023-04-03T03:45:11;3.00;99.90
21244;DHT22;10780;50.942;4.028;2023-04-03T03:47:37;3.00;99.90
21244;DHT22;10780;50.942;4.028;2023-04-03T03:50:03;3.00;99.90
21244;DHT22;10780;50.942;4.028;2023-04-03T03:52:28;3.00;99.90
21244;DHT22;10780;50.942;4.028;2023-04-03T03:54:55;3.10;99.90
21244;DHT22;10780;50.942;4.028;2023-04-03T03:57:21;3.10;99.90
21244;DHT22;10780;50.942;4.028;2023-04-03T03:59:47;3.20;99.90
21244;DHT22;10780;50.942;4.028;2023-04-03T04:02:14;3.30;99.90
21244;DHT22;10780;50.942;4.028;2023-04-03T04:04:40;3.30;99.90
21244;DHT22;10780;50.942;4.028;2023-04-03T04:07:05;3.30;99.90
21244;DHT22;10780;50.942;4.028;2023-04-03T04:09:31;3.10;99.90
21244;DHT22;10780;50.942;4.028;2023-04-03T04:11:57;3.10;99.90
21244;DHT22;10780;50.942;4.028;2023-04-03T04:14:22;3.20;99.90
21244;DHT22;10780;50.942;4.028;2023-04-03T04:16:48;3.20;99.90
21244;DHT22;10780;50.942;4.028;2023-04-03T04:19:14;3.10;99.90
21244;DHT22;10780;50.942;4.028;2023-04-03T04:21:40;2.90;99.90
21244;DHT22;10780;50.942;4.028;2023-04-03T04:24:07;2.80;99.90
21244;DHT22;10780;50.942;4.028;2023-04-03T04:26:33;2.90;99.90
21244;DHT22;10780;50.942;4.028;2023-04-03T04:29:00;2.90;99.90
21244;DHT22;10780;50.942;4.028;2023-04-03T04:31:25;3.00;99.90
21244;DHT22;10780;50.942;4.028;2023-04-03T04:33:52;2.80;99.90
21244;DHT22;10780;50.942;4.028;2023-04-03T04:36:17;2.80;99.90
21244;DHT22;10780;50.942;4.028;2023-04-03T04:38:43;2.80;99.90
21244;DHT22;10780;50.942;4.028;2023-04-03T04:41:09;2.90;99.90
21244;DHT22;10780;50.942;4.028;2023-04-03T04:43:34;2.90;99.90
21244;DHT22;10780;50.942;4.028;2023-04-03T04:46:05;2.80;99.90
21244;DHT22;10780;50.942;4.028;2023-04-03T04:48:31;2.90;99.90
21244;DHT22;10780;50.942;4.028;2023-04-03T04:50:57;2.90;99.90
21244;DHT22;10780;50.942;4.028;2023-04-03T04:53:23;3.00;99.90
21244;DHT22;10780;50.942;4.028;2023-04-03T04:55:48;3.00;99.90
21244;DHT22;10780;50.942;4.028;2023-04-03T04:58:14;3.00;99.90
21244;DHT22;10780;50.942;4.028;2023-04-03T05:00:40;3.00;99.90
21244;DHT22;10780;50.942;4.028;2023-04-03T05:03:06;3.00;99.90
21244;DHT22;10780;50.942;4.028;2023-04-03T05:05:31;2.90;99.90
21244;DHT22;10780;50.942;4.028;2023-04-03T05:07:57;2.80;99.90
21244;DHT22;10780;50.942;4.028;2023-04-03T05:10:23;2.70;99.90
21244;DHT22;10780;50.942;4.028;2023-04-03T05:12:48;2.70;99.90
21244;DHT22;10780;50.942;4.028;2023-04-03T05:15:14;2.80;99.90
21244;DHT22;10780;50.942;4.028;2023-04-03T05:17:40;2.60;99.90
21244;DHT22;10780;50.942;4.028;2023-04-03T05:20:06;2.60;99.90
21244;DHT22;10780;50.942;4.028;2023-04-03T05:22:32;2.50;99.90
21244;DHT22;10780;50.942;4.028;2023-04-03T05:24:58;2.50;99.90
21244;DHT22;10780;50.942;4.028;2023-04-03T05:27:24;2.60;99.90
21244;DHT22;10780;50.942;4.028;2023-04-03T05:29:50;2.60;99.90
21244;DHT22;10780;50.942;4.028;2023-04-03T05:32:16;2.60;99.90
21244;DHT22;10780;50.942;4.028;2023-04-03T05:34:42;2.80;99.90
21244;DHT22;10780;50.942;4.028;2023-04-03T05:37:07;2.70;99.90
21244;DHT22;10780;50.942;4.028;2023-04-03T05:39:33;2.70;99.90
21244;DHT22;10780;50.942;4.028;2023-04-03T05:41:59;2.70;99.90
21244;DHT22;10780;50.942;4.028;2023-04-03T05:44:25;2.80;99.90
21244;DHT22;10780;50.942;4.028;2023-04-03T05:46:50;2.80;99.90
21244;DHT22;10780;50.942;4.028;2023-04-03T05:49:16;3.00;99.90
21244;DHT22;10780;50.942;4.028;2023-04-03T05:51:42;3.10;99.90
21244;DHT22;10780;50.942;4.028;2023-04-03T05:54:16;3.10;99.90
21244;DHT22;10780;50.942;4.028;2023-04-03T05:56:43;3.00;99.90
21244;DHT22;10780;50.942;4.028;2023-04-03T05:59:08;3.00;99.90
21244;DHT22;10780;50.942;4.028;2023-04-03T06:01:34;3.10;99.90
21244;DHT22;10780;50.942;4.028;2023-04-03T06:04:00;3.20;99.90
21244;DHT22;10780;50.942;4.028;2023-04-03T06:06:26;3.20;99.90
21244;DHT22;10780;50.942;4.028;2023-04-03T06:08:51;3.30;99.90
21244;DHT22;10780;50.942;4.028;2023-04-03T06:11:17;3.30;99.90
21244;DHT22;10780;50.942;4.028;2023-04-03T06:13:43;3.40;99.90
21244;DHT22;10780;50.942;4.028;2023-04-03T06:16:12;3.50;99.90
21244;DHT22;10780;50.942;4.028;2023-04-03T06:18:40;3.50;99.90
21244;DHT22;10780;50.942;4.028;2023-04-03T06:21:06;3.60;99.90
21244;DHT22;10780;50.942;4.028;2023-04-03T06:23:33;3.60;99.90
21244;DHT22;10780;50.942;4.028;2023-04-03T06:25:58;3.80;99.90
21244;DHT22;10780;50.942;4.028;2023-04-03T06:28:25;3.80;99.90
21244;DHT22;10780;50.942;4.028;2023-04-03T06:30:50;3.90;99.90
21244;DHT22;10780;50.942;4.028;2023-04-03T06:33:16;4.00;99.90
21244;DHT22;10780;50.942;4.028;2023-04-03T06:35:42;4.00;99.90
21244;DHT22;10780;50.942;4.028;2023-04-03T06:38:07;4.20;99.90
21244;DHT22;10780;50.942;4.028;2023-04-03T06:40:35;4.30;99.90
21244;DHT22;10780;50.942;4.028;2023-04-03T06:43:01;4.30;99.90
21244;DHT22;10780;50.942;4.028;2023-04-03T06:45:27;4.40;99.90
21244;DHT22;10780;50.942;4.028;2023-04-03T06:47:53;4.40;99.90
21244;DHT22;10780;50.942;4.028;2023-04-03T06:50:19;4.30;99.90
21244;DHT22;10780;50.942;4.028;2023-04-03T06:52:45;4.40;99.90
21244;DHT22;10780;50.942;4.028;2023-04-03T06:55:11;4.30;99.90
21244;DHT22;10780;50.942;4.028;2023-04-03T06:57:37;4.40;99.90
21244;DHT22;10780;50.942;4.028;2023-04-03T07:00:04;4.40;99.90
21244;DHT22;10780;50.942;4.028;2023-04-03T07:02:30;4.30;99.90
21244;DHT22;10780;50.942;4.028;2023-04-03T07:04:56;4.50;99.90
21244;DHT22;10780;50.942;4.028;2023-04-03T07:07:22;4.50;99.90
21244;DHT22;10780;50.942;4.028;2023-04-03T07:09:47;4.50;99.90
21244;DHT22;10780;50.942;4.028;2023-04-03T07:12:13;4.60;99.90
21244;DHT22;10780;50.942;4.028;2023-04-03T07:14:39;4.60;99.90
21244;DHT22;10780;50.942;4.028;2023-04-03T07:17:05;4.70;99.90
21244;DHT22;10780;50.942;4.028;2023-04-03T07:19:30;4.70;99.90
21244;DHT22;10780;50.942;4.028;2023-04-03T07:21:56;4.80;99.90
21244;DHT22;10780;50.942;4.028;2023-04-03T07:24:22;4.70;99.90
21244;DHT22;10780;50.942;4.028;2023-04-03T07:26:52;4.80;99.90
21244;DHT22;10780;50.942;4.028;2023-04-03T07:29:18;4.80;99.90
21244;DHT22;10780;50.942;4.028;2023-04-03T07:31:45;4.70;99.90
21244;DHT22;10780;50.942;4.028;2023-04-03T07:34:11;4.80;99.90
21244;DHT22;10780;50.942;4.028;2023-04-03T07:36:37;4.90;99.90
21244;DHT22;10780;50.942;4.028;2023-04-03T07:39:03;5.00;99.90
21244;DHT22;10780;50.942;4.028;2023-04-03T07:41:29;5.20;99.90
21244;DHT22;10780;50.942;4.028;2023-04-03T07:43:55;5.30;99.90
21244;DHT22;10780;50.942;4.028;2023-04-03T07:46:22;5.40;99.90
21244;DHT22;10780;50.942;4.028;2023-04-03T07:48:48;5.30;99.90
21244;DHT22;10780;50.942;4.028;2023-04-03T07:51:13;5.40;99.90
21244;DHT22;10780;50.942;4.028;2023-04-03T07:53:40;5.60;99.90
21244;DHT22;10780;50.942;4.028;2023-04-03T07:56:06;5.80;99.90
21244;DHT22;10780;50.942;4.028;2023-04-03T07:58:32;5.80;99.90
21244;DHT22;10780;50.942;4.028;2023-04-03T08:00:58;5.80;99.90
21244;DHT22;10780;50.942;4.028;2023-04-03T08:03:25;5.90;99.90
21244;DHT22;10780;50.942;4.028;2023-04-03T08:05:51;5.90;99.90
21244;DHT22;10780;50.942;4.028;2023-04-03T08:08:20;5.90;99.90
21244;DHT22;10780;50.942;4.028;2023-04-03T08:10:51;5.90;99.90
21244;DHT22;10780;50.942;4.028;2023-04-03T08:13:17;6.00;99.90
21244;DHT22;10780;50.942;4.028;2023-04-03T08:15:43;6.10;99.90
21244;DHT22;10780;50.942;4.028;2023-04-03T08:18:09;6.10;99.90
21244;DHT22;10780;50.942;4.028;2023-04-03T08:20:34;6.20;99.90
21244;DHT22;10780;50.942;4.028;2023-04-03T08:23:00;6.30;99.90
21244;DHT22;10780;50.942;4.028;2023-04-03T08:25:26;6.30;99.90
21244;DHT22;10780;50.942;4.028;2023-04-03T08:27:51;6.30;99.90
21244;DHT22;10780;50.942;4.028;2023-04-03T08:30:17;6.20;99.90
21244;DHT22;10780;50.942;4.028;2023-04-03T08:32:43;6.30;99.90
21244;DHT22;10780;50.942;4.028;2023-04-03T08:35:10;6.50;99.90
21244;DHT22;10780;50.942;4.028;2023-04-03T08:37:36;6.50;99.90
21244;DHT22;10780;50.942;4.028;2023-04-03T08:40:07;6.60;99.90
21244;DHT22;10780;50.942;4.028;2023-04-03T08:45:25;6.80;99.90
21244;DHT22;10780;50.942;4.028;2023-04-03T08:48:06;6.80;99.90
21244;DHT22;10780;50.942;4.028;2023-04-03T08:50:40;6.80;99.90
21244;DHT22;10780;50.942;4.028;2023-04-03T08:53:17;6.80;99.90
21244;DHT22;10780;50.942;4.028;2023-04-03T08:55:46;6.80;99.90
21244;DHT22;10780;50.942;4.028;2023-04-03T08:58:16;6.80;99.90
21244;DHT22;10780;50.942;4.028;2023-04-03T09:01:00;6.90;99.90
21244;DHT22;10780;50.942;4.028;2023-04-03T09:03:30;7.10;99.90
21244;DHT22;10780;50.942;4.028;2023-04-03T09:06:11;7.20;99.90
21244;DHT22;10780;50.942;4.028;2023-04-03T09:26:17;7.30;99.90
21244;DHT22;10780;50.942;4.028;2023-04-03T09:28:44;7.30;99.90
21244;DHT22;10780;50.942;4.028;2023-04-03T09:31:23;7.30;99.90
21244;DHT22;10780;50.942;4.028;2023-04-03T09:33:52;7.40;99.90
21244;DHT22;10780;50.942;4.028;2023-04-03T09:36:37;7.50;99.90
21244;DHT22;10780;50.942;4.028;2023-04-03T09:39:05;7.60;99.90
21244;DHT22;10780;50.942;4.028;2023-04-03T09:41:31;7.80;99.90
21244;DHT22;10780;50.942;4.028;2023-04-03T09:43:58;7.80;99.90
21244;DHT22;10780;50.942;4.028;2023-04-03T09:46:32;8.00;99.90
21244;DHT22;10780;50.942;4.028;2023-04-03T09:49:03;7.90;99.90
21244;DHT22;10780;50.942;4.028;2023-04-03T09:51:30;7.90;99.90
21244;DHT22;10780;50.942;4.028;2023-04-03T09:53:56;7.80;99.90
21244;DHT22;10780;50.942;4.028;2023-04-03T10:01:38;8.00;99.90
21244;DHT22;10780;50.942;4.028;2023-04-03T10:04:16;8.10;99.90
21244;DHT22;10780;50.942;4.028;2023-04-03T10:06:48;8.30;99.90
21244;DHT22;10780;50.942;4.028;2023-04-03T10:09:24;8.40;99.90
21244;DHT22;10780;50.942;4.028;2023-04-03T10:12:05;8.30;99.90
21244;DHT22;10780;50.942;4.028;2023-04-03T10:14:37;8.30;99.90
21244;DHT22;10780;50.942;4.028;2023-04-03T10:17:19;8.30;99.90
21244;DHT22;10780;50.942;4.028;2023-04-03T10:19:57;8.40;99.90
21244;DHT22;10780;50.942;4.028;2023-04-03T10:26:11;8.50;99.90
21244;DHT22;10780;50.942;4.028;2023-04-03T10:31:14;8.70;99.90
21244;DHT22;10780;50.942;4.028;2023-04-03T10:33:51;8.80;99.90
21244;DHT22;10780;50.942;4.028;2023-04-03T10:47:40;8.80;99.90
21244;DHT22;10780;50.942;4.028;2023-04-03T10:57:55;9.10;99.90
21244;DHT22;10780;50.942;4.028;2023-04-03T11:02:58;9.30;99.90
21244;DHT22;10780;50.942;4.028;2023-04-03T11:05:42;9.30;99.90
21244;DHT22;10780;50.942;4.028;2023-04-03T11:08:36;9.30;99.90
21244;DHT22;10780;50.942;4.028;2023-04-03T11:11:17;9.40;99.90
21244;DHT22;10780;50.942;4.028;2023-04-03T11:14:05;9.40;99.90
21244;DHT22;10780;50.942;4.028;2023-04-03T11:16:38;9.40;99.90
21244;DHT22;10780;50.942;4.028;2023-04-03T11:19:22;9.50;99.90
21244;DHT22;10780;50.942;4.028;2023-04-03T11:22:01;9.60;99.90
21244;DHT22;10780;50.942;4.028;2023-04-03T11:24:32;9.60;99.90
21244;DHT22;10780;50.942;4.028;2023-04-03T11:26:59;9.60;99.90
21244;DHT22;10780;50.942;4.028;2023-04-03T11:29:36;9.60;99.90
21244;DHT22;10780;50.942;4.028;2023-04-03T11:34:54;9.80;99.90
21244;DHT22;10780;50.942;4.028;2023-04-03T11:40:18;10.00;99.90
21244;DHT22;10780;50.942;4.028;2023-04-03T11:43:02;10.00;99.90
21244;DHT22;10780;50.942;4.028;2023-04-03T11:50:47;10.00;99.90
21244;DHT22;10780;50.942;4.028;2023-04-03T11:55:51;10.30;99.90
21244;DHT22;10780;50.942;4.028;2023-04-03T11:58:24;10.30;99.90
21244;DHT22;10780;50.942;4.028;2023-04-03T12:00:59;10.30;99.90
21244;DHT22;10780;50.942;4.028;2023-04-03T12:13:35;10.20;99.90
21244;DHT22;10780;50.942;4.028;2023-04-03T12:16:03;10.20;99.90
21244;DHT22;10780;50.942;4.028;2023-04-03T12:18:41;10.10;99.90
21244;DHT22;10780;50.942;4.028;2023-04-03T12:21:09;10.00;99.90
21244;DHT22;10780;50.942;4.028;2023-04-03T12:23:36;10.20;99.90
21244;DHT22;10780;50.942;4.028;2023-04-03T12:26:23;10.30;99.90
21244;DHT22;10780;50.942;4.028;2023-04-03T12:28:53;10.40;99.90
21244;DHT22;10780;50.942;4.028;2023-04-03T12:31:23;10.40;99.90
21244;DHT22;10780;50.942;4.028;2023-04-03T12:34:14;10.30;99.90
21244;DHT22;10780;50.942;4.028;2023-04-03T12:36:50;10.30;99.90
21244;DHT22;10780;50.942;4.028;2023-04-03T12:45:13;10.40;99.90
21244;DHT22;10780;50.942;4.028;2023-04-03T12:47:43;10.40;99.90
21244;DHT22;10780;50.942;4.028;2023-04-03T12:50:24;10.30;99.90
21244;DHT22;10780;50.942;4.028;2023-04-03T12:53:00;10.30;99.90
21244;DHT22;10780;50.942;4.028;2023-04-03T12:55:27;10.40;99.90
21244;DHT22;10780;50.942;4.028;2023-04-03T12:57:53;10.40;99.90
21244;DHT22;10780;50.942;4.028;2023-04-03T13:00:29;10.40;99.90
21244;DHT22;10780;50.942;4.028;2023-04-03T13:02:55;10.40;99.90
21244;DHT22;10780;50.942;4.028;2023-04-03T13:05:22;10.30;99.90
21244;DHT22;10780;50.942;4.028;2023-04-03T13:08:10;10.30;99.90
21244;DHT22;10780;50.942;4.028;2023-04-03T13:10:51;10.40;99.90
21244;DHT22;10780;50.942;4.028;2023-04-03T13:13:18;10.70;99.90
21244;DHT22;10780;50.942;4.028;2023-04-03T13:15:46;10.80;99.90
21244;DHT22;10780;50.942;4.028;2023-04-03T13:20:49;10.80;99.90
21244;DHT22;10780;50.942;4.028;2023-04-03T13:23:17;10.80;99.90
21244;DHT22;10780;50.942;4.028;2023-04-03T13:25:47;10.90;99.90
21244;DHT22;10780;50.942;4.028;2023-04-03T13:28:18;10.90;99.90
21244;DHT22;10780;50.942;4.028;2023-04-03T13:31:07;10.90;99.90
21244;DHT22;10780;50.942;4.028;2023-04-03T13:33:36;10.90;99.90
21244;DHT22;10780;50.942;4.028;2023-04-03T13:36:21;10.80;99.90
21244;DHT22;10780;50.942;4.028;2023-04-03T13:39:21;10.90;99.90
21244;DHT22;10780;50.942;4.028;2023-04-03T13:41:49;10.90;99.90
21244;DHT22;10780;50.942;4.028;2023-04-03T13:46:59;10.90;99.90
21244;DHT22;10780;50.942;4.028;2023-04-03T13:49:40;10.80;99.90
21244;DHT22;10780;50.942;4.028;2023-04-03T13:52:24;10.80;99.90
21244;DHT22;10780;50.942;4.028;2023-04-03T13:54:55;10.70;99.90
21244;DHT22;10780;50.942;4.028;2023-04-03T13:57:22;10.70;99.90
21244;DHT22;10780;50.942;4.028;2023-04-03T13:59:47;10.60;99.90
21244;DHT22;10780;50.942;4.028;2023-04-03T14:02:20;10.50;99.90
21244;DHT22;10780;50.942;4.028;2023-04-03T14:04:54;10.60;99.90
21244;DHT22;10780;50.942;4.028;2023-04-03T14:07:24;10.60;99.90
21244;DHT22;10780;50.942;4.028;2023-04-03T14:09:50;10.70;99.90
21244;DHT22;10780;50.942;4.028;2023-04-03T14:12:29;10.70;99.90
21244;DHT22;10780;50.942;4.028;2023-04-03T14:14:57;10.60;99.90
21244;DHT22;10780;50.942;4.028;2023-04-03T14:17:25;10.60;99.90
21244;DHT22;10780;50.942;4.028;2023-04-03T14:19:52;10.70;99.90
21244;DHT22;10780;50.942;4.028;2023-04-03T14:22:24;10.70;99.90
21244;DHT22;10780;50.942;4.028;2023-04-03T14:24:51;10.90;99.90
21244;DHT22;10780;50.942;4.028;2023-04-03T14:27:19;11.00;99.90
21244;DHT22;10780;50.942;4.028;2023-04-03T14:29:46;11.20;99.90
21244;DHT22;10780;50.942;4.028;2023-04-03T14:32:14;11.10;99.90
21244;DHT22;10780;50.942;4.028;2023-04-03T14:34:40;11.00;99.90
21244;DHT22;10780;50.942;4.028;2023-04-03T14:37:10;11.00;99.90
21244;DHT22;10780;50.942;4.028;2023-04-03T14:39:36;11.00;99.90
21244;DHT22;10780;50.942;4.028;2023-04-03T14:42:02;11.10;99.90
21244;DHT22;10780;50.942;4.028;2023-04-03T14:44:28;11.30;99.90
21244;DHT22;10780;50.942;4.028;2023-04-03T14:46:54;11.20;99.90
21244;DHT22;10780;50.942;4.028;2023-04-03T14:49:25;11.20;99.90
21244;DHT22;10780;50.942;4.028;2023-04-03T14:51:52;11.60;99.90
21244;DHT22;10780;50.942;4.028;2023-04-03T14:54:20;12.20;99.90
21244;DHT22;10780;50.942;4.028;2023-04-03T14:56:51;12.80;99.90
21244;DHT22;10780;50.942;4.028;2023-04-03T14:59:17;13.40;99.90
21244;DHT22;10780;50.942;4.028;2023-04-03T15:01:45;13.90;99.90
21244;DHT22;10780;50.942;4.028;2023-04-03T15:04:15;14.20;99.90
21244;DHT22;10780;50.942;4.028;2023-04-03T15:06:42;14.40;99.90
21244;DHT22;10780;50.942;4.028;2023-04-03T15:09:21;15.30;99.90
21244;DHT22;10780;50.942;4.028;2023-04-03T15:11:48;15.60;99.90
21244;DHT22;10780;50.942;4.028;2023-04-03T15:14:14;15.70;99.90
21244;DHT22;10780;50.942;4.028;2023-04-03T15:16:40;15.80;99.90
21244;DHT22;10780;50.942;4.028;2023-04-03T15:19:06;15.80;99.90
21244;DHT22;10780;50.942;4.028;2023-04-03T15:21:31;16.00;99.90
21244;DHT22;10780;50.942;4.028;2023-04-03T15:23:57;16.50;99.90
21244;DHT22;10780;50.942;4.028;2023-04-03T15:26:23;16.30;96.20
21244;DHT22;10780;50.942;4.028;2023-04-03T15:28:49;15.70;99.20
21244;DHT22;10780;50.942;4.028;2023-04-03T15:31:14;16.70;98.00
21244;DHT22;10780;50.942;4.028;2023-04-03T15:33:40;16.40;97.70
21244;DHT22;10780;50.942;4.028;2023-04-03T15:36:06;17.20;97.20
21244;DHT22;10780;50.942;4.028;2023-04-03T15:38:32;17.20;93.60
21244;DHT22;10780;50.942;4.028;2023-04-03T15:40:58;16.60;92.40
21244;DHT22;10780;50.942;4.028;2023-04-03T15:43:23;17.10;93.40
21244;DHT22;10780;50.942;4.028;2023-04-03T15:45:49;17.70;93.20
21244;DHT22;10780;50.942;4.028;2023-04-03T15:48:16;16.90;90.40
21244;DHT22;10780;50.942;4.028;2023-04-03T15:50:42;17.20;91.90
21244;DHT22;10780;50.942;4.028;2023-04-03T15:53:09;17.30;90.10
21244;DHT22;10780;50.942;4.028;2023-04-03T15:55:37;16.50;89.90
21244;DHT22;10780;50.942;4.028;2023-04-03T15:58:04;16.40;90.50
21244;DHT22;10780;50.942;4.028;2023-04-03T16:00:30;16.50;90.40
21244;DHT22;10780;50.942;4.028;2023-04-03T16:02:59;16.50;90.20
21244;DHT22;10780;50.942;4.028;2023-04-03T16:05:27;16.30;88.70
21244;DHT22;10780;50.942;4.028;2023-04-03T16:07:53;16.40;88.60
21244;DHT22;10780;50.942;4.028;2023-04-03T16:10:20;15.80;88.10
21244;DHT22;10780;50.942;4.028;2023-04-03T16:12:46;15.30;88.50
21244;DHT22;10780;50.942;4.028;2023-04-03T16:15:12;15.50;90.00
21244;DHT22;10780;50.942;4.028;2023-04-03T16:17:38;15.70;89.40
21244;DHT22;10780;50.942;4.028;2023-04-03T16:20:07;15.90;88.10
21244;DHT22;10780;50.942;4.028;2023-04-03T16:22:33;16.20;88.40
21244;DHT22;10780;50.942;4.028;2023-04-03T16:24:59;15.90;86.40
21244;DHT22;10780;50.942;4.028;2023-04-03T16:27:25;16.30;84.80
21244;DHT22;10780;50.942;4.028;2023-04-03T16:29:54;16.10;85.20
21244;DHT22;10780;50.942;4.028;2023-04-03T16:32:20;15.90;84.00
21244;DHT22;10780;50.942;4.028;2023-04-03T16:34:46;16.10;84.80
21244;DHT22;10780;50.942;4.028;2023-04-03T16:37:12;15.80;86.80
21244;DHT22;10780;50.942;4.028;2023-04-03T16:39:37;16.20;87.00
21244;DHT22;10780;50.942;4.028;2023-04-03T16:42:03;16.30;85.00
21244;DHT22;10780;50.942;4.028;2023-04-03T16:44:29;16.80;87.70
21244;DHT22;10780;50.942;4.028;2023-04-03T16:46:54;16.70;83.50
21244;DHT22;10780;50.942;4.028;2023-04-03T16:49:20;17.00;83.90
21244;DHT22;10780;50.942;4.028;2023-04-03T16:51:47;16.60;82.40
21244;DHT22;10780;50.942;4.028;2023-04-03T16:54:13;16.20;83.30
21244;DHT22;10780;50.942;4.028;2023-04-03T16:56:39;16.70;83.80
21244;DHT22;10780;50.942;4.028;2023-04-03T16:59:05;17.00;83.60
21244;DHT22;10780;50.942;4.028;2023-04-03T17:01:31;17.40;81.30
21244;DHT22;10780;50.942;4.028;2023-04-03T17:03:57;16.70;80.00
21244;DHT22;10780;50.942;4.028;2023-04-03T17:06:22;16.80;81.10
21244;DHT22;10780;50.942;4.028;2023-04-03T17:08:49;16.70;80.40
21244;DHT22;10780;50.942;4.028;2023-04-03T17:11:16;16.20;82.30
21244;DHT22;10780;50.942;4.028;2023-04-03T17:13:42;15.70;83.60
21244;DHT22;10780;50.942;4.028;2023-04-03T17:16:11;16.10;84.60
21244;DHT22;10780;50.942;4.028;2023-04-03T17:18:38;15.80;81.70